Time;durP1;ratioP1;P1;durP2;ratioP2;P2;SDS_P1;SDS_P2;PMS_P1;PMS_P2;Temp;Humidity;BMP_temperature;BMP_pressure;BME280_temperature;BME280_humidity;BME280_pressure;Samples;Min_cycle;Max_cycle;Signal;HPM_P1;HPM_P2
2023/02/06 00:02:13;;;;;;;60.37;23.07;;;2.50;99.90;;;;;;5001722;28;20576;-73
2023/02/06 00:04:38;;;;;;;89.53;22.80;;;2.50;99.90;;;;;;4991197;28;20665;-73
2023/02/06 00:07:04;;;;;;;72.33;23.90;;;2.50;99.90;;;;;;4994564;28;20189;-74
2023/02/06 00:09:29;;;;;;;66.30;24.57;;;2.50;99.90;;;;;;4992747;28;20606;-74
2023/02/06 00:11:55;;;;;;;67.37;25.50;;;2.50;99.90;;;;;;4993981;28;20208;-73
2023/02/06 00:14:20;;;;;;;60.97;24.10;;;2.50;99.90;;;;;;4994441;28;20200;-74
2023/02/06 00:16:46;;;;;;;62.53;23.80;;;2.60;99.90;;;;;;4993714;28;20190;-73
2023/02/06 00:19:11;;;;;;;54.50;24.30;;;2.60;99.90;;;;;;4994348;28;20288;-71
2023/02/06 00:21:37;;;;;;;58.60;23.77;;;2.60;99.90;;;;;;4986476;28;20226;-74
2023/02/06 00:24:02;;;;;;;59.13;25.80;;;2.60;99.90;;;;;;5000565;28;20734;-74
2023/02/06 00:26:30;;;;;;;63.80;25.67;;;2.60;99.90;;;;;;4996256;28;20224;-74
2023/02/06 00:28:55;;;;;;;62.33;25.87;;;2.60;99.90;;;;;;4994850;28;20210;-74
2023/02/06 00:31:21;;;;;;;66.07;24.90;;;2.50;99.90;;;;;;4994308;28;21030;-74
2023/02/06 00:33:46;;;;;;;61.57;25.37;;;2.50;99.90;;;;;;4994538;28;20192;-74
2023/02/06 00:36:12;;;;;;;76.47;27.50;;;2.50;99.90;;;;;;4994377;28;20217;-73
2023/02/06 00:38:37;;;;;;;59.80;24.70;;;2.50;99.90;;;;;;4994560;28;20269;-74
2023/02/06 00:41:03;;;;;;;58.53;25.50;;;2.60;99.90;;;;;;4993016;28;20252;-74
2023/02/06 00:43:29;;;;;;;59.80;26.23;;;2.60;99.90;;;;;;4993891;28;20210;-74
2023/02/06 00:45:56;;;;;;;68.97;27.30;;;2.60;99.90;;;;;;4993852;28;20682;-74
2023/02/06 00:48:22;;;;;;;60.30;25.30;;;2.60;99.90;;;;;;4994054;28;20323;-74
2023/02/06 00:50:49;;;;;;;65.57;26.30;;;2.60;99.90;;;;;;5001965;28;21024;-74
2023/02/06 00:53:14;;;;;;;59.80;26.00;;;2.60;99.90;;;;;;4993709;28;20473;-72
2023/02/06 00:55:40;;;;;;;63.37;24.90;;;2.60;99.90;;;;;;4997290;28;20879;-74
2023/02/06 00:58:05;;;;;;;90.50;27.17;;;2.50;99.90;;;;;;4998899;28;20260;-75
2023/02/06 01:00:33;;;;;;;69.47;27.07;;;2.60;99.90;;;;;;4992082;28;20611;-74
2023/02/06 01:02:58;;;;;;;62.87;28.03;;;2.50;99.90;;;;;;4993588;28;20201;-75
2023/02/06 01:05:24;;;;;;;71.47;26.87;;;2.60;99.90;;;;;;4993015;28;20955;-74
2023/02/06 01:07:49;;;;;;;70.20;26.13;;;2.60;99.90;;;;;;4993548;28;20224;-74
2023/02/06 01:10:15;;;;;;;61.97;25.93;;;2.60;99.90;;;;;;4992080;28;20305;-74
2023/02/06 01:12:40;;;;;;;61.03;25.10;;;2.60;99.90;;;;;;4993361;28;20666;-74
2023/02/06 01:15:10;;;;;;;60.67;24.13;;;2.60;99.90;;;;;;5000254;28;20343;-73
2023/02/06 01:17:36;;;;;;;56.30;25.30;;;2.60;99.90;;;;;;4993749;28;20197;-74
2023/02/06 01:20:02;;;;;;;55.90;24.90;;;2.60;99.90;;;;;;4999660;28;20443;-73
2023/02/06 01:22:27;;;;;;;64.77;27.50;;;2.60;99.90;;;;;;4994800;28;20458;-74
2023/02/06 01:24:53;;;;;;;63.33;26.17;;;2.60;99.90;;;;;;4992854;28;20437;-74
2023/02/06 01:27:18;;;;;;;61.80;25.47;;;2.60;99.90;;;;;;4992538;28;20864;-74
2023/02/06 01:29:44;;;;;;;57.73;25.87;;;2.60;99.90;;;;;;4993197;28;20662;-74
2023/02/06 01:32:09;;;;;;;54.73;22.73;;;2.60;99.90;;;;;;4992712;28;20655;-76
2023/02/06 01:34:35;;;;;;;65.27;23.40;;;2.60;99.90;;;;;;4992503;28;20241;-74
2023/02/06 01:37:01;;;;;;;60.30;25.00;;;2.60;99.90;;;;;;4993071;28;20201;-74
2023/02/06 01:39:26;;;;;;;65.80;25.33;;;2.60;99.90;;;;;;4992960;28;20316;-74
2023/02/06 01:41:52;;;;;;;62.53;25.70;;;2.60;99.90;;;;;;4997544;28;21079;-76
2023/02/06 01:44:21;;;;;;;77.67;29.40;;;2.60;99.90;;;;;;4994543;28;20206;-73
2023/02/06 01:46:51;;;;;;;69.40;28.87;;;2.60;99.90;;;;;;4992610;28;20208;-74
2023/02/06 01:49:25;;;;;;;60.10;27.00;;;2.60;99.90;;;;;;4992551;28;20822;-73
2023/02/06 01:51:53;;;;;;;65.03;26.47;;;2.70;99.90;;;;;;4992661;28;20572;-74
2023/02/06 01:54:19;;;;;;;73.60;29.67;;;2.60;99.90;;;;;;4992175;28;20532;-73
2023/02/06 01:56:50;;;;;;;71.53;28.00;;;2.50;99.90;;;;;;4992578;28;20577;-74
2023/02/06 01:59:16;;;;;;;73.67;29.03;;;2.50;99.90;;;;;;4992775;28;20467;-73
2023/02/06 03:32:24;;;;;;;82.87;29.50;;;2.40;99.90;;;;;;5271675;22;20530;-75
2023/02/06 03:34:54;;;;;;;67.53;26.07;;;2.40;99.90;;;;;;5009004;28;20428;-73
2023/02/06 03:37:20;;;;;;;67.10;27.00;;;2.40;99.90;;;;;;5010899;28;20433;-73
2023/02/06 03:39:46;;;;;;;66.00;26.90;;;2.40;99.90;;;;;;5010500;28;20421;-73
2023/02/06 03:42:14;;;;;;;68.83;28.17;;;2.40;99.90;;;;;;5010611;28;20448;-73
2023/02/06 03:44:46;;;;;;;63.37;27.13;;;2.40;99.90;;;;;;5010715;28;20804;-72
2023/02/06 03:47:14;;;;;;;63.77;27.40;;;2.50;99.90;;;;;;4996324;28;20420;-73
2023/02/06 03:49:42;;;;;;;56.60;26.30;;;2.50;99.90;;;;;;4991549;28;20465;-74
2023/02/06 03:52:12;;;;;;;62.07;27.03;;;2.50;99.90;;;;;;5009065;28;20450;-74
2023/02/06 03:54:41;;;;;;;61.80;27.20;;;2.50;99.90;;;;;;5016326;28;20958;-72
2023/02/06 03:57:11;;;;;;;61.50;27.10;;;2.50;99.90;;;;;;5006234;28;20469;-73
2023/02/06 03:59:36;;;;;;;66.80;27.87;;;2.50;99.90;;;;;;4979465;28;20436;-73
2023/02/06 04:02:03;;;;;;;65.70;26.67;;;2.50;99.90;;;;;;5006149;28;20464;-73
2023/02/06 04:04:35;;;;;;;67.37;27.20;;;2.50;99.90;;;;;;5014181;28;20280;-73
2023/02/06 04:07:13;;;;;;;68.17;26.43;;;2.40;99.90;;;;;;5006164;28;20526;-73
2023/02/06 04:09:39;;;;;;;62.90;27.53;;;2.40;99.90;;;;;;5012119;28;20437;-73
2023/02/06 04:12:05;;;;;;;68.83;30.00;;;2.50;99.90;;;;;;4994504;28;20543;-72
2023/02/06 04:14:30;;;;;;;65.70;28.33;;;2.40;99.90;;;;;;4994329;28;20424;-73
2023/02/06 04:16:56;;;;;;;65.23;28.53;;;2.40;99.90;;;;;;5006718;28;20719;-73
2023/02/06 04:19:21;;;;;;;61.43;27.43;;;2.30;99.90;;;;;;5014117;28;20197;-73
2023/02/06 04:21:47;;;;;;;61.90;27.73;;;2.40;99.90;;;;;;5010887;28;20258;-73
2023/02/06 04:24:13;;;;;;;58.77;27.23;;;2.30;99.90;;;;;;4994407;28;20199;-73
2023/02/06 04:26:38;;;;;;;59.00;28.53;;;2.30;99.90;;;;;;4994284;28;20196;-74
2023/02/06 04:29:04;;;;;;;69.80;28.57;;;2.40;99.90;;;;;;4994375;28;20247;-73
2023/02/06 04:31:30;;;;;;;69.03;30.67;;;2.40;99.90;;;;;;5010315;28;20641;-73
2023/02/06 04:33:55;;;;;;;59.40;28.57;;;2.40;99.90;;;;;;5002319;28;20200;-73
2023/02/06 04:36:21;;;;;;;67.13;29.83;;;2.30;99.90;;;;;;5009352;28;20472;-75
2023/02/06 04:38:46;;;;;;;62.67;29.53;;;2.30;99.90;;;;;;5013641;28;20226;-73
2023/02/06 04:41:11;;;;;;;57.83;28.77;;;2.30;99.90;;;;;;5013041;28;20283;-74
2023/02/06 04:43:37;;;;;;;54.23;26.40;;;2.30;99.90;;;;;;5012053;28;20193;-74
2023/02/06 04:46:03;;;;;;;60.57;26.80;;;2.30;99.90;;;;;;4994223;28;20201;-74
2023/02/06 04:48:28;;;;;;;65.70;27.53;;;2.30;99.90;;;;;;5010499;28;20211;-73
2023/02/06 04:50:53;;;;;;;66.70;29.87;;;2.30;99.90;;;;;;5013800;28;20524;-75
2023/02/06 04:53:19;;;;;;;57.13;27.47;;;2.20;99.90;;;;;;5006787;28;20209;-73
2023/02/06 04:55:45;;;;;;;73.03;30.30;;;2.30;99.90;;;;;;5004574;28;20297;-74
2023/02/06 04:58:10;;;;;;;84.47;26.50;;;2.30;99.90;;;;;;4999942;28;20203;-75
2023/02/06 05:00:36;;;;;;;80.33;28.30;;;2.30;99.90;;;;;;4993854;28;20224;-73
2023/02/06 05:03:02;;;;;;;64.90;27.40;;;2.40;99.90;;;;;;4997750;28;20200;-73
2023/02/06 05:05:28;;;;;;;63.20;29.10;;;2.30;99.90;;;;;;5004781;28;20429;-72
2023/02/06 05:07:53;;;;;;;62.67;26.50;;;2.30;99.90;;;;;;5005199;28;20517;-73
2023/02/06 05:10:19;;;;;;;66.43;28.20;;;2.30;99.90;;;;;;5013195;28;20195;-71
2023/02/06 05:12:46;;;;;;;62.17;29.03;;;2.20;99.90;;;;;;4985160;28;20214;-73
2023/02/06 05:15:11;;;;;;;62.07;27.00;;;2.20;99.90;;;;;;5007441;28;20774;-75
2023/02/06 05:17:37;;;;;;;57.63;27.50;;;2.30;99.90;;;;;;5003861;28;20431;-73
2023/02/06 05:20:03;;;;;;;58.60;26.37;;;2.30;99.90;;;;;;5001708;28;20197;-73
2023/02/06 05:22:29;;;;;;;62.27;27.90;;;2.30;99.90;;;;;;5001702;28;20274;-73
2023/02/06 05:24:54;;;;;;;53.07;26.03;;;2.30;99.90;;;;;;5004762;28;20418;-73
2023/02/06 05:27:20;;;;;;;59.40;27.40;;;2.30;99.90;;;;;;5005087;28;20220;-75
2023/02/06 05:29:45;;;;;;;59.47;28.03;;;2.20;99.90;;;;;;5002559;28;20238;-73
2023/02/06 05:32:11;;;;;;;59.30;26.30;;;2.20;99.90;;;;;;5007276;28;20220;-74
2023/02/06 05:34:36;;;;;;;56.80;26.97;;;2.20;99.90;;;;;;5003508;28;20180;-74
2023/02/06 05:37:02;;;;;;;51.07;26.30;;;2.20;99.90;;;;;;5014177;28;20182;-73
2023/02/06 05:39:28;;;;;;;61.40;27.93;;;2.20;99.90;;;;;;4996834;28;20630;-72
2023/02/06 05:41:53;;;;;;;51.53;25.33;;;2.10;99.90;;;;;;5001396;28;20200;-74
2023/02/06 05:44:19;;;;;;;65.17;26.23;;;2.20;99.90;;;;;;5015884;28;20189;-74
2023/02/06 05:46:47;;;;;;;60.87;27.50;;;2.20;99.90;;;;;;5002484;28;20191;-72
2023/02/06 05:49:13;;;;;;;49.97;25.57;;;2.20;99.90;;;;;;5006092;28;20223;-74
2023/02/06 05:51:38;;;;;;;54.43;25.20;;;2.20;99.90;;;;;;5002608;28;20442;-73
2023/02/06 05:54:04;;;;;;;48.43;25.07;;;2.20;99.90;;;;;;5002049;28;20907;-72
2023/02/06 05:56:29;;;;;;;51.10;25.60;;;2.20;99.90;;;;;;5008076;28;20671;-73
2023/02/06 05:58:55;;;;;;;54.37;27.13;;;2.20;99.90;;;;;;5001300;28;20185;-73
2023/02/06 06:01:20;;;;;;;49.57;26.03;;;2.10;99.90;;;;;;4995636;28;20200;-74
2023/02/06 06:03:46;;;;;;;55.77;25.70;;;2.20;99.90;;;;;;5000552;28;20192;-75
2023/02/06 06:06:11;;;;;;;56.43;27.47;;;2.10;99.90;;;;;;5000839;28;20845;-74
2023/02/06 06:08:37;;;;;;;51.40;25.70;;;2.10;99.90;;;;;;5000732;28;20676;-74
2023/02/06 06:11:03;;;;;;;46.20;25.50;;;2.10;99.90;;;;;;5000637;28;20689;-74
2023/02/06 06:13:28;;;;;;;49.13;25.37;;;2.10;99.90;;;;;;4999637;28;20181;-74
2023/02/06 06:15:54;;;;;;;54.33;27.20;;;2.10;99.90;;;;;;5000681;28;20175;-74
2023/02/06 06:18:20;;;;;;;45.93;24.03;;;2.10;99.90;;;;;;5000814;28;20649;-74
2023/02/06 06:20:46;;;;;;;47.27;25.17;;;2.10;99.90;;;;;;5002224;28;20293;-74
2023/02/06 06:23:12;;;;;;;50.27;25.23;;;2.10;99.90;;;;;;4986506;28;20401;-73
2023/02/06 06:25:38;;;;;;;51.57;26.77;;;2.10;99.90;;;;;;5003820;28;20390;-75
2023/02/06 06:28:04;;;;;;;50.40;26.73;;;2.10;99.90;;;;;;5003935;28;20215;-75
2023/02/06 06:30:29;;;;;;;69.80;24.87;;;2.10;99.90;;;;;;5004004;28;20823;-71
2023/02/06 06:32:55;;;;;;;74.53;24.30;;;2.10;99.90;;;;;;4995454;28;20422;-72
2023/02/06 06:35:20;;;;;;;80.70;26.27;;;2.10;99.90;;;;;;4997048;28;20181;-73
2023/02/06 06:37:46;;;;;;;71.77;24.70;;;2.20;99.90;;;;;;5010317;28;20264;-73
2023/02/06 06:40:12;;;;;;;71.73;25.40;;;2.10;99.90;;;;;;5003939;28;20202;-73
2023/02/06 06:42:37;;;;;;;60.57;24.40;;;2.10;99.90;;;;;;5002812;28;20220;-72
2023/02/06 06:45:03;;;;;;;60.23;26.80;;;2.20;99.90;;;;;;5000216;28;20645;-73
2023/02/06 06:47:29;;;;;;;51.13;23.50;;;2.20;99.90;;;;;;4998892;28;20187;-73
2023/02/06 06:49:54;;;;;;;55.97;25.73;;;2.20;99.90;;;;;;4995602;28;20422;-74
2023/02/06 06:52:20;;;;;;;50.60;24.93;;;2.20;99.90;;;;;;5005694;28;20197;-73
2023/02/06 06:54:45;;;;;;;51.10;24.33;;;2.10;99.90;;;;;;5001618;28;20529;-73
2023/02/06 06:57:12;;;;;;;47.63;23.83;;;2.10;99.90;;;;;;5003553;28;20638;-73
2023/02/06 06:59:38;;;;;;;51.17;25.90;;;2.10;99.90;;;;;;5003591;28;20595;-73
2023/02/06 07:02:03;;;;;;;49.77;23.90;;;2.10;99.90;;;;;;5003651;28;20448;-73
2023/02/06 07:04:30;;;;;;;47.40;23.60;;;2.10;99.90;;;;;;5003452;28;20796;-72
2023/02/06 07:06:56;;;;;;;52.50;24.80;;;2.10;99.90;;;;;;5019720;28;20649;-73
2023/02/06 07:09:22;;;;;;;55.17;22.33;;;2.10;99.90;;;;;;5003189;28;20522;-73
2023/02/06 07:11:47;;;;;;;49.53;21.77;;;2.10;99.90;;;;;;5002767;28;20616;-72
2023/02/06 07:14:13;;;;;;;42.30;21.30;;;2.10;99.90;;;;;;5006469;28;20543;-73
2023/02/06 07:16:38;;;;;;;56.47;20.83;;;2.20;99.90;;;;;;5000381;28;20185;-73
2023/02/06 07:19:04;;;;;;;41.70;19.93;;;2.20;99.90;;;;;;5003451;28;20662;-72
2023/02/06 07:21:30;;;;;;;38.73;19.70;;;2.30;99.90;;;;;;5003225;28;20201;-73
2023/02/06 07:23:55;;;;;;;42.10;19.27;;;2.20;99.90;;;;;;5000639;28;20191;-72
2023/02/06 07:26:21;;;;;;;35.57;16.17;;;2.20;99.90;;;;;;5008791;28;20183;-73
2023/02/06 07:28:48;;;;;;;34.60;17.53;;;2.30;99.90;;;;;;5005367;28;20220;-71
2023/02/06 07:31:14;;;;;;;38.17;16.50;;;2.20;99.90;;;;;;5003442;28;20208;-73
2023/02/06 07:33:40;;;;;;;33.67;17.77;;;2.20;99.90;;;;;;5003830;28;20757;-73
2023/02/06 07:36:10;;;;;;;33.00;16.00;;;2.20;99.90;;;;;;5006659;28;20388;-73
2023/02/06 07:38:35;;;;;;;30.73;15.43;;;2.20;99.90;;;;;;5006766;28;20227;-73
2023/02/06 07:41:02;;;;;;;31.53;15.77;;;2.20;99.90;;;;;;5006668;28;20475;-74
2023/02/06 07:43:27;;;;;;;30.43;16.17;;;2.30;99.90;;;;;;5006669;28;20246;-73
2023/02/06 07:45:53;;;;;;;31.00;17.10;;;2.30;99.90;;;;;;5004342;28;20914;-73
2023/02/06 07:48:18;;;;;;;28.00;15.30;;;2.30;99.90;;;;;;5000744;28;20298;-73
2023/02/06 07:50:44;;;;;;;34.67;15.20;;;2.40;99.90;;;;;;5006286;28;20671;-73
2023/02/06 07:53:09;;;;;;;40.57;14.57;;;2.30;99.90;;;;;;5006607;28;20176;-73
2023/02/06 07:55:37;;;;;;;33.07;15.10;;;2.40;99.90;;;;;;5006053;28;20671;-73
2023/02/06 07:58:02;;;;;;;27.50;13.03;;;2.40;99.90;;;;;;4994198;28;20815;-72
2023/02/06 08:00:28;;;;;;;25.83;12.90;;;2.40;99.90;;;;;;5009709;28;20431;-72
2023/02/06 08:02:54;;;;;;;27.50;12.47;;;2.40;99.90;;;;;;4998274;28;20514;-73
2023/02/06 08:05:19;;;;;;;29.70;12.40;;;2.40;99.90;;;;;;5006064;28;20220;-73
2023/02/06 08:07:45;;;;;;;27.03;11.70;;;2.30;99.90;;;;;;5005435;28;20605;-74
2023/02/06 08:10:10;;;;;;;43.67;11.80;;;2.40;99.90;;;;;;5003047;28;20172;-72
2023/02/06 08:12:36;;;;;;;25.10;12.53;;;2.50;99.90;;;;;;5002686;28;20196;-73
2023/02/06 08:15:02;;;;;;;25.20;12.07;;;2.40;99.90;;;;;;4997639;28;20187;-73
2023/02/06 08:17:28;;;;;;;25.57;12.73;;;2.40;99.90;;;;;;5006194;28;20226;-74
2023/02/06 08:19:53;;;;;;;25.93;12.67;;;2.50;99.90;;;;;;5006149;28;21000;-72
2023/02/06 08:22:19;;;;;;;26.23;12.10;;;2.50;99.90;;;;;;5006085;28;20248;-73
2023/02/06 08:24:44;;;;;;;25.67;12.67;;;2.50;99.90;;;;;;5005018;28;20183;-71
2023/02/06 08:27:10;;;;;;;27.77;12.20;;;2.50;99.90;;;;;;5002812;28;20188;-72
2023/02/06 08:29:41;;;;;;;31.33;13.27;;;2.60;99.90;;;;;;5002343;28;20740;-72
2023/02/06 08:32:08;;;;;;;30.97;14.13;;;2.60;99.90;;;;;;4997908;28;20203;-73
2023/02/06 08:34:33;;;;;;;29.57;13.73;;;2.70;99.90;;;;;;4988113;28;20390;-73
2023/02/06 08:36:59;;;;;;;29.53;13.00;;;2.80;99.90;;;;;;5002250;28;20419;-74
2023/02/06 08:39:24;;;;;;;26.90;12.33;;;2.80;99.90;;;;;;5000596;28;20181;-73
2023/02/06 08:41:50;;;;;;;26.60;12.80;;;2.70;99.90;;;;;;5004317;28;20693;-73
2023/02/06 08:44:17;;;;;;;25.90;12.77;;;2.70;99.90;;;;;;5007308;28;20182;-73
2023/02/06 08:46:45;;;;;;;25.77;12.87;;;2.60;99.90;;;;;;5005042;28;20876;-73
2023/02/06 08:49:13;;;;;;;25.00;12.20;;;2.70;99.90;;;;;;4984596;28;20870;-72
2023/02/06 08:51:39;;;;;;;32.23;13.20;;;2.70;99.90;;;;;;5001989;28;20438;-72
2023/02/06 08:54:09;;;;;;;25.47;11.20;;;2.80;99.90;;;;;;4997309;28;20761;-72
2023/02/06 08:56:36;;;;;;;30.07;11.73;;;2.90;99.90;;;;;;5005483;28;20413;-70
2023/02/06 08:59:02;;;;;;;37.97;11.80;;;2.90;99.90;;;;;;5002701;28;20422;-71
2023/02/06 09:01:30;;;;;;;26.10;11.20;;;2.90;99.90;;;;;;4999806;28;20501;-72
2023/02/06 09:03:58;;;;;;;27.53;12.03;;;3.00;99.90;;;;;;5003110;28;20401;-72
2023/02/06 09:06:24;;;;;;;22.13;9.67;;;2.90;99.90;;;;;;5001688;28;20395;-72
2023/02/06 09:08:50;;;;;;;23.57;10.13;;;2.90;99.90;;;;;;5001661;28;20894;-72
2023/02/06 09:11:20;;;;;;;22.20;10.30;;;2.80;99.90;;;;;;5001693;28;20440;-71
2023/02/06 09:13:47;;;;;;;21.20;8.63;;;2.70;99.90;;;;;;5001972;28;20420;-71
2023/02/06 09:16:15;;;;;;;22.97;10.50;;;2.70;99.90;;;;;;5008875;28;20515;-72
2023/02/06 09:18:40;;;;;;;28.13;11.00;;;2.70;99.90;;;;;;5001516;28;20423;-72
2023/02/06 09:21:15;;;;;;;21.50;10.40;;;2.60;99.90;;;;;;5004721;28;20436;-73
2023/02/06 09:23:43;;;;;;;23.20;9.67;;;2.70;99.90;;;;;;4996906;28;20184;-72
2023/02/06 09:26:15;;;;;;;21.00;9.83;;;2.70;99.90;;;;;;4996810;28;20492;-72
2023/02/06 09:28:40;;;;;;;20.80;8.70;;;2.80;99.90;;;;;;4996828;28;20463;-73
2023/02/06 09:31:07;;;;;;;28.03;8.87;;;2.80;99.90;;;;;;4983774;28;20455;-72
2023/02/06 09:33:33;;;;;;;18.10;8.50;;;2.90;99.90;;;;;;4999945;28;20176;-72
2023/02/06 09:36:11;;;;;;;26.17;6.97;;;3.00;99.90;;;;;;5004753;28;20451;-72
2023/02/06 09:38:42;;;;;;;39.60;7.50;;;3.00;99.90;;;;;;5004662;28;20420;-72
2023/02/06 09:41:27;;;;;;;24.70;8.07;;;3.00;99.90;;;;;;5009524;28;20539;-72
2023/02/06 09:44:14;;;;;;;20.30;8.13;;;3.10;99.90;;;;;;5009485;28;20420;-72
2023/02/06 09:46:56;;;;;;;24.00;8.50;;;3.10;99.90;;;;;;5008570;28;20419;-71
2023/02/06 09:49:31;;;;;;;18.93;7.70;;;3.20;99.90;;;;;;4998113;28;20465;-72
2023/02/06 09:52:15;;;;;;;14.20;6.10;;;3.20;99.90;;;;;;5011153;28;20435;-72
2023/02/06 09:55:00;;;;;;;18.43;7.17;;;3.10;99.90;;;;;;5000456;28;20425;-72
2023/02/06 09:58:00;;;;;;;17.40;7.30;;;3.10;99.90;;;;;;4997971;28;20405;-72
2023/02/06 10:00:43;;;;;;;14.83;6.73;;;3.20;99.90;;;;;;4928354;28;20425;-72
2023/02/06 10:03:18;;;;;;;18.00;7.70;;;3.10;99.90;;;;;;5001251;28;20520;-71
2023/02/06 10:06:01;;;;;;;17.67;7.57;;;3.00;99.90;;;;;;5000913;28;20470;-71
2023/02/06 10:08:37;;;;;;;17.13;7.80;;;3.20;99.90;;;;;;4998330;28;20516;-71
2023/02/06 10:11:13;;;;;;;21.30;7.23;;;3.20;99.90;;;;;;5001780;28;20436;-72
2023/02/06 10:13:51;;;;;;;17.63;7.40;;;3.40;99.90;;;;;;4999617;28;20413;-73
2023/02/06 10:16:35;;;;;;;17.60;7.40;;;3.50;99.90;;;;;;4987316;28;20948;-72
2023/02/06 10:19:14;;;;;;;15.03;6.30;;;3.30;99.90;;;;;;5001854;28;21086;-73
2023/02/06 10:21:47;;;;;;;16.50;7.13;;;3.40;99.90;;;;;;4999610;28;20534;-71
2023/02/06 10:24:40;;;;;;;18.03;8.10;;;3.40;99.90;;;;;;5000153;28;20425;-71
2023/02/06 10:27:11;;;;;;;18.33;6.50;;;3.40;99.90;;;;;;5002960;28;20430;-71
2023/02/06 10:29:40;;;;;;;10.90;4.63;;;3.30;99.90;;;;;;5003418;28;20464;-71
2023/02/06 10:32:27;;;;;;;16.83;5.20;;;3.30;99.90;;;;;;4995106;28;20499;-71
2023/02/06 10:35:09;;;;;;;14.53;5.53;;;3.30;99.90;;;;;;5002405;28;20533;-70
2023/02/06 10:37:46;;;;;;;15.80;6.37;;;3.30;99.90;;;;;;4998509;28;20403;-69
2023/02/06 10:40:37;;;;;;;14.13;4.73;;;3.30;99.90;;;;;;5003418;28;20413;-71
2023/02/06 10:43:16;;;;;;;14.90;4.17;;;3.40;99.90;;;;;;4983971;28;20824;-72
2023/02/06 10:45:56;;;;;;;11.73;4.10;;;3.40;99.90;;;;;;4999279;28;20416;-71
2023/02/06 10:48:35;;;;;;;16.60;4.73;;;3.40;99.90;;;;;;5000443;28;20465;-71
2023/02/06 10:51:25;;;;;;;12.37;4.07;;;3.50;99.90;;;;;;4984493;28;20443;-70
2023/02/06 10:53:56;;;;;;;11.10;4.33;;;3.50;99.90;;;;;;5003121;28;21006;-73
2023/02/06 10:56:32;;;;;;;12.43;4.80;;;3.50;99.90;;;;;;4992430;28;20414;-72
2023/02/06 10:59:00;;;;;;;15.87;5.30;;;3.50;99.90;;;;;;5001819;28;20491;-72
2023/02/06 11:01:31;;;;;;;12.10;5.20;;;3.50;99.90;;;;;;5014001;28;20481;-72
2023/02/06 11:04:18;;;;;;;12.90;5.30;;;3.50;99.90;;;;;;5007090;28;20427;-72
2023/02/06 11:06:45;;;;;;;15.07;5.80;;;3.50;99.90;;;;;;5007075;28;20423;-70
2023/02/06 11:09:12;;;;;;;15.33;4.77;;;3.50;99.90;;;;;;5004626;28;20471;-71
2023/02/06 11:11:42;;;;;;;19.17;5.82;;;3.50;99.90;;;;;;5002855;28;20427;-70
2023/02/06 11:14:27;;;;;;;15.17;5.27;;;3.60;99.90;;;;;;5002912;28;20185;-72
2023/02/06 11:16:53;;;;;;;13.63;4.10;;;3.50;99.90;;;;;;5003383;28;20424;-71
2023/02/06 11:19:30;;;;;;;19.43;5.57;;;3.50;99.90;;;;;;5007399;28;20420;-70
2023/02/06 11:22:25;;;;;;;12.70;4.63;;;3.50;99.90;;;;;;5006002;28;20213;-71
2023/02/06 11:25:23;;;;;;;14.77;4.47;;;3.50;99.90;;;;;;5003508;28;20439;-73
2023/02/06 11:27:49;;;;;;;15.93;5.30;;;3.50;99.90;;;;;;5006859;28;20464;-72
2023/02/06 11:30:33;;;;;;;16.53;4.97;;;3.50;99.90;;;;;;4998890;28;20546;-71
2023/02/06 11:33:17;;;;;;;19.10;5.20;;;3.50;99.90;;;;;;5005919;28;20185;-72
2023/02/06 11:35:57;;;;;;;15.97;4.50;;;3.50;99.90;;;;;;5000870;28;20409;-70
2023/02/06 11:38:26;;;;;;;16.03;5.97;;;3.60;99.90;;;;;;5000631;28;20427;-71
2023/02/06 11:41:01;;;;;;;14.17;5.20;;;3.60;99.90;;;;;;5006369;28;20527;-72
2023/02/06 11:43:32;;;;;;;12.50;4.77;;;3.60;99.90;;;;;;5006677;28;20536;-72
2023/02/06 11:46:17;;;;;;;13.17;5.47;;;3.60;99.90;;;;;;4998467;28;20427;-72
2023/02/06 11:49:00;;;;;;;12.87;5.13;;;3.70;99.90;;;;;;5007282;28;20493;-71
2023/02/06 11:51:58;;;;;;;14.40;5.90;;;3.70;99.90;;;;;;5000022;28;20433;-72
2023/02/06 11:54:33;;;;;;;15.07;5.50;;;3.80;99.90;;;;;;4999525;28;20970;-71
2023/02/06 11:57:25;;;;;;;11.27;5.00;;;3.90;99.90;;;;;;4998610;28;21130;-71
2023/02/06 11:59:56;;;;;;;12.67;4.97;;;3.90;99.90;;;;;;4986404;28;20421;-71
2023/02/06 12:02:33;;;;;;;12.30;5.60;;;4.00;99.90;;;;;;4981910;28;20428;-71
2023/02/06 12:05:15;;;;;;;25.47;8.90;;;3.90;99.90;;;;;;5013661;28;20937;-70
2023/02/06 12:07:53;;;;;;;14.63;6.30;;;3.90;99.90;;;;;;5001702;28;20415;-71
2023/02/06 12:10:22;;;;;;;17.20;6.10;;;3.80;99.90;;;;;;4998739;28;20862;-70
2023/02/06 12:12:54;;;;;;;12.70;5.83;;;3.90;99.90;;;;;;4998650;28;20456;-71
2023/02/06 12:15:42;;;;;;;14.17;7.10;;;3.90;99.90;;;;;;5002597;28;20419;-71
2023/02/06 12:18:17;;;;;;;13.53;5.93;;;3.90;99.90;;;;;;5003008;28;20522;-72
2023/02/06 12:21:04;;;;;;;13.93;6.30;;;4.00;99.90;;;;;;5001426;28;20410;-70
2023/02/06 12:23:35;;;;;;;13.47;6.27;;;3.90;99.90;;;;;;4999589;28;20423;-72
2023/02/06 12:26:06;;;;;;;16.37;7.13;;;3.90;99.90;;;;;;5006886;28;20463;-70
2023/02/06 12:29:01;;;;;;;15.17;6.80;;;4.00;99.90;;;;;;4997716;28;20474;-70
2023/02/06 12:31:30;;;;;;;14.80;6.27;;;4.00;99.90;;;;;;5002476;28;21069;-73
2023/02/06 12:34:09;;;;;;;18.73;7.03;;;4.00;99.90;;;;;;5003311;28;20443;-71
2023/02/06 12:36:46;;;;;;;15.90;6.80;;;4.00;99.90;;;;;;5014290;28;20958;-72
2023/02/06 12:39:18;;;;;;;17.33;6.63;;;3.90;99.90;;;;;;5002591;28;20424;-72
2023/02/06 12:41:59;;;;;;;18.90;6.80;;;3.90;99.90;;;;;;4983234;28;20547;-70
2023/02/06 12:44:28;;;;;;;17.83;7.57;;;4.00;99.90;;;;;;4998272;28;20440;-72
2023/02/06 12:47:05;;;;;;;17.20;7.27;;;3.90;99.90;;;;;;5005151;28;20440;-71
2023/02/06 12:49:42;;;;;;;17.00;6.53;;;3.80;99.90;;;;;;4999032;28;20460;-71
2023/02/06 12:52:17;;;;;;;19.83;6.50;;;3.80;99.90;;;;;;5004288;28;20444;-73
2023/02/06 12:54:50;;;;;;;14.03;5.30;;;3.70;99.90;;;;;;4989913;28;20961;-72
2023/02/06 12:57:26;;;;;;;15.10;4.90;;;3.70;99.90;;;;;;5013106;28;20482;-72
2023/02/06 13:00:08;;;;;;;15.70;5.47;;;3.70;99.90;;;;;;5005555;28;20778;-73
2023/02/06 13:03:06;;;;;;;11.70;5.57;;;3.70;99.90;;;;;;4996878;28;20496;-72
2023/02/06 13:05:36;;;;;;;10.90;5.57;;;3.70;99.90;;;;;;4990436;28;20443;-70
2023/02/06 13:08:08;;;;;;;10.80;5.30;;;3.70;99.90;;;;;;5002157;28;20966;-71
2023/02/06 13:10:35;;;;;;;13.13;4.93;;;3.70;99.90;;;;;;5006963;28;20410;-71
2023/02/06 13:13:01;;;;;;;12.17;4.90;;;3.60;99.90;;;;;;4997336;28;20778;-72
2023/02/06 13:15:38;;;;;;;12.60;5.10;;;3.50;99.90;;;;;;5000898;28;20426;-71
2023/02/06 13:18:49;;;;;;;17.73;5.27;;;3.50;99.90;;;;;;4995049;28;20196;-72
2023/02/06 13:21:23;;;;;;;13.57;4.60;;;3.50;99.90;;;;;;5002744;28;20459;-71
2023/02/06 13:24:00;;;;;;;11.23;4.70;;;3.30;99.90;;;;;;4999956;28;20522;-70
2023/02/06 13:26:50;;;;;;;9.20;3.33;;;3.40;99.90;;;;;;5005680;28;20415;-71
2023/02/06 13:29:28;;;;;;;16.17;4.37;;;3.40;99.90;;;;;;5005021;28;20552;-73
2023/02/06 13:32:14;;;;;;;9.23;3.70;;;3.50;99.90;;;;;;4997325;28;20960;-72
2023/02/06 13:34:45;;;;;;;12.33;3.97;;;3.60;99.90;;;;;;4982018;28;20462;-70
2023/02/06 13:37:32;;;;;;;11.40;4.13;;;3.70;99.90;;;;;;5004813;28;20463;-71
2023/02/06 13:40:27;;;;;;;10.10;3.30;;;3.70;99.90;;;;;;4996530;28;20417;-70
2023/02/06 13:42:57;;;;;;;8.63;3.13;;;3.80;99.90;;;;;;5000720;28;20406;-70
2023/02/06 13:45:31;;;;;;;10.30;3.37;;;3.80;99.90;;;;;;5004530;28;20401;-72
2023/02/06 13:48:09;;;;;;;11.50;4.97;;;3.80;99.90;;;;;;5004513;28;20457;-72
2023/02/06 13:50:43;;;;;;;34.87;4.07;;;4.00;99.90;;;;;;5006094;28;20462;-71
2023/02/06 13:53:31;;;;;;;29.00;3.73;;;4.00;99.90;;;;;;5003193;28;20461;-71
2023/02/06 13:56:01;;;;;;;18.83;3.87;;;4.10;99.90;;;;;;5009048;28;20409;-71
2023/02/06 13:58:33;;;;;;;17.43;3.70;;;4.20;99.90;;;;;;4997444;28;20496;-71
2023/02/06 14:00:59;;;;;;;12.97;3.47;;;4.30;99.90;;;;;;5012522;28;20515;-72
2023/02/06 14:03:29;;;;;;;10.70;3.00;;;4.40;99.90;;;;;;4998328;28;20421;-71
2023/02/06 14:06:03;;;;;;;12.27;2.60;;;4.20;99.90;;;;;;5008365;28;20424;-71
2023/02/06 14:09:01;;;;;;;11.53;2.40;;;4.20;99.90;;;;;;4992580;28;20813;-70
2023/02/06 14:14:49;;;;;;;11.90;3.07;;;4.10;99.90;;;;;;4996298;28;20410;-70
2023/02/06 14:17:32;;;;;;;13.97;2.63;;;4.00;99.90;;;;;;5004283;28;20494;-71
2023/02/06 14:20:01;;;;;;;12.60;3.00;;;4.00;99.90;;;;;;5004327;28;20416;-70
2023/02/06 14:22:40;;;;;;;18.93;3.33;;;4.00;99.90;;;;;;4996215;28;20967;-70
2023/02/06 14:25:34;;;;;;;12.53;3.13;;;3.90;99.90;;;;;;5003062;28;20384;-71
2023/02/06 14:28:31;;;;;;;12.47;2.90;;;3.90;99.90;;;;;;5000531;28;20466;-71
2023/02/06 14:31:15;;;;;;;13.23;3.60;;;3.80;99.90;;;;;;5008641;28;20519;-72
2023/02/06 14:34:27;;;;;;;12.10;4.07;;;3.80;99.90;;;;;;5000645;28;20723;-71